KFIG

Details ICAO KFIG
Name CLEARFIELD LAWRENCE
Region United States
Timezone America/New_York (UTC-5.0)
Plans Departing 2
Arriving 3
Stats Elevation 1,516 ft / 462 m (AMSL)
Location 41.048603° -78.413098°
Runways 1
Magnetic Variation 10.463° W
Sunrise 2017-12-14 12:32:29 UTC / 2017-12-14 07:32:29 Local
Sunset 2017-12-14 21:47:11 UTC / 2017-12-14 16:47:11 Local
Advertisement - Login to hide

Runways

ID Width Length Bearing (true) Bearing (mag) Surface Threshold Offset Overrun Length
12 75 ft / 23 m 4,491 ft / 1,369 m 108.96° 119.42° Asphalt 0 ft / 0 m 0 ft / 0 m
30 75 ft / 23 m 4,491 ft / 1,369 m 288.97° 299.43° Asphalt 0 ft / 0 m 0 ft / 0 m

Map

Weather


0- 5 10 15 20 25 30 35+ Temperature / ° C

Clouds and Precipitation
Forecast for 2017-12-15 06:00 UTC. Updated an hour ago

Ground ~20,000 ft ~40,000 ft Winds

METAR

KFIG 150354Z AUTO 00000KT 10SM FEW033 M12/M14 A3002 RMK AO2 SLP192 T11171144

TAF

Not found

Frequencies

Recorded 119.27 MHz ASOS
Unicom 122.72 MHz CTAF/UNICOM
Warning: Do not use this data for real-world aviation or navigation. No guarantee of current accuracy is given.